Terminal Aerodrome Forecast
Issued by NWS

Home | Current Version | Previous Version | Text Only | Print | Product List | Glossary On
Versions: 1 2 3 4 5 6 7 8 9 10 11 12 13 14 15 16 17
741
FTUS43 KICT 201120
TAFHUT
TAF
KHUT 201120Z 2012/2112 30019G25KT P6SM BKN014
     FM201600 29015G23KT P6SM BKN020
     FM201900 29016G24KT P6SM BKN035
     FM202000 29016G24KT P6SM SCT060
     FM210100 30011KT P6SM FEW150
     FM210200 31007KT P6SM FEW200
     FM210400 VRB03KT P6SM SKC=

USA.gov is the U.S. government's official web portal to all federal, state and local government web resources and services.